Time;durP1;ratioP1;P1;durP2;ratioP2;P2;SDS_P1;SDS_P2;PMS_P1;PMS_P2;Temp;Humidity;BMP_temperature;BMP_pressure;BME280_temperature;BME280_humidity;BME280_pressure;Samples;Min_cycle;Max_cycle;Signal;HPM_P1;HPM_P2
2023/02/18 00:00:25;;;;;;;3.45;1.50;;;;;;;;;;5009653;28;20204;-52
2023/02/18 00:02:51;;;;;;;3.83;1.50;;;;;;;;;;5013501;28;20557;-51
2023/02/18 00:05:17;;;;;;;4.05;1.77;;;;;;;;;;5002168;28;20288;-52
2023/02/18 00:07:43;;;;;;;4.13;1.67;;;;;;;;;;5011103;28;20219;-52
2023/02/18 00:10:12;;;;;;;2.78;1.50;;;;;;;;;;5012659;28;20192;-52
2023/02/18 00:12:38;;;;;;;2.22;1.35;;;;;;;;;;5014108;28;20203;-51
2023/02/18 00:15:04;;;;;;;2.85;1.75;;;;;;;;;;5014524;28;20212;-52
2023/02/18 00:17:30;;;;;;;2.58;1.42;;;;;;;;;;5015898;28;20239;-52
2023/02/18 00:19:56;;;;;;;2.78;1.30;;;;;;;;;;5011923;28;20189;-51
2023/02/18 00:22:23;;;;;;;3.67;1.65;;;;;;;;;;5004869;28;20200;-52
2023/02/18 00:24:49;;;;;;;2.88;1.30;;;;;;;;;;5017269;28;20180;-51
2023/02/18 00:27:15;;;;;;;4.32;1.50;;;;;;;;;;5010344;28;20279;-52
2023/02/18 00:29:41;;;;;;;2.40;1.30;;;;;;;;;;5016166;28;20238;-52
2023/02/18 00:32:07;;;;;;;1.88;1.17;;;;;;;;;;5014398;28;20922;-52
2023/02/18 00:34:32;;;;;;;1.98;1.23;;;;;;;;;;5011542;28;20212;-51
2023/02/18 00:36:58;;;;;;;2.45;1.38;;;;;;;;;;5015987;28;20239;-51
2023/02/18 00:39:24;;;;;;;3.30;1.35;;;;;;;;;;5016970;28;20177;-52
2023/02/18 00:41:50;;;;;;;1.95;1.23;;;;;;;;;;5012277;28;20184;-51
2023/02/18 00:44:16;;;;;;;2.83;1.52;;;;;;;;;;5010686;28;20587;-52
2023/02/18 00:46:42;;;;;;;3.00;1.23;;;;;;;;;;5015189;28;20196;-52
2023/02/18 00:49:08;;;;;;;3.00;1.30;;;;;;;;;;5014963;28;20188;-52
2023/02/18 00:51:34;;;;;;;1.35;1.00;;;;;;;;;;5008906;28;20269;-52
2023/02/18 00:54:00;;;;;;;1.52;1.10;;;;;;;;;;5009272;28;20283;-52
2023/02/18 00:56:26;;;;;;;1.73;1.20;;;;;;;;;;5010728;28;20194;-52
2023/02/18 00:58:52;;;;;;;1.60;1.17;;;;;;;;;;5009472;28;20191;-52
2023/02/18 01:01:18;;;;;;;2.60;1.33;;;;;;;;;;5005701;28;20185;-52
2023/02/18 01:03:45;;;;;;;1.33;1.00;;;;;;;;;;5013680;28;20180;-52
2023/02/18 01:06:11;;;;;;;1.42;1.10;;;;;;;;;;5011289;28;20283;-52
2023/02/18 01:08:38;;;;;;;1.60;1.17;;;;;;;;;;5007844;28;20235;-51
2023/02/18 01:11:04;;;;;;;1.48;0.90;;;;;;;;;;4999505;28;20212;-52
2023/02/18 01:13:30;;;;;;;3.38;1.08;;;;;;;;;;5001029;28;20219;-52
2023/02/18 01:15:56;;;;;;;1.33;1.20;;;;;;;;;;4996416;28;20185;-51
2023/02/18 01:18:24;;;;;;;1.10;1.00;;;;;;;;;;5003029;28;20193;-52
2023/02/18 01:20:50;;;;;;;1.20;1.10;;;;;;;;;;4996453;28;20569;-51
2023/02/18 01:23:16;;;;;;;0.93;0.93;;;;;;;;;;4996246;28;20193;-52
2023/02/18 01:25:42;;;;;;;1.63;0.90;;;;;;;;;;4995832;28;20396;-52
2023/02/18 01:28:08;;;;;;;2.35;1.05;;;;;;;;;;5002649;28;20196;-52
2023/02/18 01:30:34;;;;;;;1.92;1.15;;;;;;;;;;5005209;28;20189;-51
2023/02/18 01:33:00;;;;;;;1.98;1.02;;;;;;;;;;5007304;28;20248;-52
2023/02/18 01:35:26;;;;;;;1.20;1.00;;;;;;;;;;5010107;28;20315;-52
2023/02/18 01:37:52;;;;;;;1.90;1.00;;;;;;;;;;5013625;28;20263;-52
2023/02/18 01:40:20;;;;;;;1.08;0.80;;;;;;;;;;5009742;28;20524;-51
2023/02/18 01:42:47;;;;;;;1.48;0.90;;;;;;;;;;5014428;28;20180;-52
2023/02/18 01:45:31;;;;;;;1.17;0.90;;;;;;;;;;5010118;28;20291;-52
2023/02/18 01:47:57;;;;;;;1.67;0.98;;;;;;;;;;4997335;28;20200;-51
2023/02/18 01:50:23;;;;;;;1.10;1.00;;;;;;;;;;5011128;28;20453;-52
2023/02/18 01:52:49;;;;;;;1.05;0.93;;;;;;;;;;4998587;28;20180;-51
2023/02/18 01:55:15;;;;;;;1.35;0.90;;;;;;;;;;5007733;28;20208;-51
2023/02/18 01:57:41;;;;;;;1.15;1.00;;;;;;;;;;5011722;28;20184;-51
2023/02/18 02:00:10;;;;;;;1.40;0.90;;;;;;;;;;5011322;28;20180;-52
2023/02/18 02:02:38;;;;;;;0.98;0.85;;;;;;;;;;5009191;28;20196;-52
2023/02/18 02:05:04;;;;;;;1.33;0.77;;;;;;;;;;5010322;28;20494;-52
2023/02/18 02:07:30;;;;;;;1.67;0.98;;;;;;;;;;5008733;28;20263;-52
2023/02/18 02:09:58;;;;;;;0.80;0.80;;;;;;;;;;5014768;28;20263;-51
2023/02/18 02:12:37;;;;;;;0.88;0.80;;;;;;;;;;5010517;28;20524;-52
2023/02/18 02:15:15;;;;;;;1.30;0.93;;;;;;;;;;5007818;28;20277;-51
2023/02/18 02:17:54;;;;;;;1.23;0.80;;;;;;;;;;5010927;28;20187;-52
2023/02/18 02:20:44;;;;;;;1.10;0.82;;;;;;;;;;5011158;28;20462;-51
2023/02/18 02:23:13;;;;;;;1.02;0.90;;;;;;;;;;5009869;28;20177;-52
2023/02/18 02:25:52;;;;;;;1.17;1.00;;;;;;;;;;5011234;28;20196;-52
2023/02/18 02:28:25;;;;;;;1.02;0.65;;;;;;;;;;5010440;28;20270;-52
2023/02/18 02:31:03;;;;;;;1.05;1.00;;;;;;;;;;5011643;28;20184;-52
2023/02/18 02:33:29;;;;;;;1.00;0.90;;;;;;;;;;5011566;28;20219;-52
2023/02/18 02:36:21;;;;;;;1.35;0.98;;;;;;;;;;5011923;28;20177;-51
2023/02/18 02:39:00;;;;;;;1.23;0.90;;;;;;;;;;5010268;28;20192;-52
2023/02/18 02:41:35;;;;;;;1.55;0.95;;;;;;;;;;5009640;28;20176;-51
2023/02/18 02:44:07;;;;;;;1.20;0.75;;;;;;;;;;5010417;28;20195;-52
2023/02/18 02:46:39;;;;;;;1.38;0.93;;;;;;;;;;5014435;28;20626;-52
2023/02/18 02:49:23;;;;;;;1.00;0.82;;;;;;;;;;5012775;28;20572;-51
2023/02/18 02:51:49;;;;;;;1.00;0.90;;;;;;;;;;5015236;28;20223;-51
2023/02/18 02:54:20;;;;;;;1.27;1.00;;;;;;;;;;5010815;28;20212;-52
2023/02/18 02:56:46;;;;;;;0.73;0.60;;;;;;;;;;5004450;28;20185;-52
2023/02/18 02:59:32;;;;;;;1.65;0.93;;;;;;;;;;4999203;28;20185;-52
2023/02/18 03:02:10;;;;;;;1.25;0.88;;;;;;;;;;5001211;28;20549;-51
2023/02/18 03:04:52;;;;;;;1.08;0.98;;;;;;;;;;4998596;28;20200;-52
2023/02/18 03:07:20;;;;;;;0.75;0.75;;;;;;;;;;5006119;28;20231;-52
2023/02/18 03:10:02;;;;;;;0.60;0.60;;;;;;;;;;4999529;28;20292;-52
2023/02/18 03:12:36;;;;;;;0.80;0.80;;;;;;;;;;5002123;28;20185;-51
2023/02/18 03:15:23;;;;;;;0.80;0.70;;;;;;;;;;5006567;28;20587;-51
2023/02/18 03:18:04;;;;;;;1.45;1.00;;;;;;;;;;5003671;28;20205;-52
2023/02/18 03:20:36;;;;;;;1.25;0.90;;;;;;;;;;5006852;28;20271;-52
2023/02/18 03:23:04;;;;;;;1.00;0.80;;;;;;;;;;5006202;28;20192;-52
2023/02/18 03:25:31;;;;;;;0.90;0.60;;;;;;;;;;5007045;28;20180;-52
2023/02/18 03:27:59;;;;;;;0.93;0.80;;;;;;;;;;5015926;28;20223;-52
2023/02/18 03:30:28;;;;;;;0.70;0.60;;;;;;;;;;5014266;28;20180;-51
2023/02/18 03:32:56;;;;;;;0.77;0.60;;;;;;;;;;5014405;28;20475;-51
2023/02/18 03:35:23;;;;;;;0.90;0.80;;;;;;;;;;5016811;28;20236;-51
2023/02/18 03:38:03;;;;;;;1.60;0.60;;;;;;;;;;5008696;28;20442;-52
2023/02/18 03:40:32;;;;;;;0.60;0.60;;;;;;;;;;5011293;28;20185;-51
2023/02/18 03:42:58;;;;;;;0.63;0.63;;;;;;;;;;5004566;28;20438;-51
2023/02/18 03:45:25;;;;;;;0.75;0.75;;;;;;;;;;5015151;28;20187;-51
2023/02/18 03:47:51;;;;;;;0.60;0.60;;;;;;;;;;5012650;28;20203;-51
2023/02/18 03:50:18;;;;;;;0.77;0.77;;;;;;;;;;5010309;28;20185;-51
2023/02/18 03:52:43;;;;;;;1.00;0.90;;;;;;;;;;5005716;28;20232;-52
2023/02/18 03:55:10;;;;;;;0.68;0.68;;;;;;;;;;5010461;28;20243;-52
2023/02/18 03:57:36;;;;;;;0.80;0.80;;;;;;;;;;5015751;28;20195;-52
2023/02/18 04:00:04;;;;;;;0.70;0.70;;;;;;;;;;5006240;28;20188;-52
2023/02/18 04:02:30;;;;;;;0.80;0.63;;;;;;;;;;5005156;28;20263;-51
2023/02/18 04:04:56;;;;;;;0.93;0.82;;;;;;;;;;5008374;28;20618;-51
2023/02/18 04:07:22;;;;;;;0.93;0.70;;;;;;;;;;5009128;28;20184;-52
2023/02/18 04:09:48;;;;;;;0.60;0.60;;;;;;;;;;5014726;28;20275;-52
2023/02/18 04:12:14;;;;;;;0.68;0.68;;;;;;;;;;5017098;28;20209;-51
2023/02/18 04:14:40;;;;;;;0.70;0.65;;;;;;;;;;5000865;28;20205;-52
2023/02/18 04:17:06;;;;;;;1.38;0.75;;;;;;;;;;5014551;28;20499;-52
2023/02/18 04:19:32;;;;;;;0.65;0.60;;;;;;;;;;5009323;28;20208;-51
2023/02/18 04:21:57;;;;;;;0.70;0.70;;;;;;;;;;5014965;28;20234;-52
2023/02/18 04:24:23;;;;;;;0.50;0.40;;;;;;;;;;5012363;28;20188;-51
2023/02/18 04:26:49;;;;;;;0.75;0.70;;;;;;;;;;5014407;28;20246;-51
2023/02/18 04:29:15;;;;;;;0.63;0.50;;;;;;;;;;5016620;28;20209;-51
2023/02/18 04:31:41;;;;;;;0.65;0.60;;;;;;;;;;5016536;28;20192;-51
2023/02/18 04:34:07;;;;;;;0.73;0.60;;;;;;;;;;5014381;28;20204;-51
2023/02/18 04:36:33;;;;;;;0.68;0.63;;;;;;;;;;5015436;28;20176;-52
2023/02/18 04:38:59;;;;;;;0.50;0.50;;;;;;;;;;5006504;28;20216;-51
2023/02/18 04:41:25;;;;;;;0.75;0.60;;;;;;;;;;4999332;28;20196;-52
2023/02/18 04:43:51;;;;;;;0.60;0.60;;;;;;;;;;5007648;28;20192;-51
2023/02/18 04:46:17;;;;;;;0.85;0.63;;;;;;;;;;5011958;28;20187;-52
2023/02/18 04:48:44;;;;;;;1.00;0.60;;;;;;;;;;5001143;28;20200;-51
2023/02/18 04:51:10;;;;;;;0.70;0.70;;;;;;;;;;5003210;28;20244;-52
2023/02/18 04:53:36;;;;;;;0.47;0.47;;;;;;;;;;4996344;28;20527;-51
2023/02/18 04:56:01;;;;;;;1.50;0.50;;;;;;;;;;5001355;28;20185;-52
2023/02/18 04:58:27;;;;;;;0.50;0.50;;;;;;;;;;4999461;28;20263;-52
2023/02/18 05:00:53;;;;;;;0.60;0.60;;;;;;;;;;4997547;28;20582;-52
2023/02/18 05:03:19;;;;;;;0.50;0.50;;;;;;;;;;4996188;28;20256;-52
2023/02/18 05:05:45;;;;;;;0.65;0.40;;;;;;;;;;5010713;28;20187;-52
2023/02/18 05:08:11;;;;;;;0.43;0.40;;;;;;;;;;5004054;28;20224;-52
2023/02/18 05:10:38;;;;;;;0.55;0.55;;;;;;;;;;5004237;28;20457;-52
2023/02/18 05:13:04;;;;;;;0.50;0.50;;;;;;;;;;5006986;28;20446;-52
2023/02/18 05:15:30;;;;;;;0.50;0.50;;;;;;;;;;5007958;28;20208;-51
2023/02/18 05:17:56;;;;;;;0.50;0.50;;;;;;;;;;5008284;28;20667;-52
2023/02/18 05:20:21;;;;;;;0.85;0.70;;;;;;;;;;5001938;28;20185;-51
2023/02/18 05:22:47;;;;;;;0.80;0.60;;;;;;;;;;5004828;28;20189;-51
2023/02/18 05:25:13;;;;;;;0.85;0.50;;;;;;;;;;5010491;28;20184;-50
2023/02/18 05:27:39;;;;;;;0.82;0.60;;;;;;;;;;5009766;28;20208;-62
2023/02/18 05:30:12;;;;;;;1.90;0.80;;;;;;;;;;5069223;28;20576;-59
2023/02/18 05:32:38;;;;;;;0.60;0.43;;;;;;;;;;5079421;28;20475;-59
2023/02/18 05:35:04;;;;;;;1.65;0.70;;;;;;;;;;5071421;28;20554;-54
2023/02/18 05:37:30;;;;;;;3.63;0.70;;;;;;;;;;5077694;28;20285;-52
2023/02/18 05:39:55;;;;;;;2.05;0.80;;;;;;;;;;5085439;28;20501;-53
2023/02/18 05:42:22;;;;;;;3.42;0.90;;;;;;;;;;5070133;28;20186;-51
2023/02/18 05:44:48;;;;;;;0.95;0.90;;;;;;;;;;5072263;28;20524;-58
2023/02/18 05:47:14;;;;;;;2.55;1.10;;;;;;;;;;5069209;28;20182;-49
2023/02/18 05:49:41;;;;;;;6.72;1.20;;;;;;;;;;5069351;28;20564;-53
2023/02/18 05:52:07;;;;;;;2.33;0.80;;;;;;;;;;5068825;28;20194;-52
2023/02/18 05:54:34;;;;;;;2.38;1.00;;;;;;;;;;5067142;28;20262;-57
2023/02/18 05:56:59;;;;;;;4.57;0.93;;;;;;;;;;5072611;28;20459;-51
2023/02/18 05:59:25;;;;;;;2.70;1.05;;;;;;;;;;5076629;28;20190;-50
2023/02/18 06:01:51;;;;;;;1.17;0.90;;;;;;;;;;5075180;28;20241;-50
2023/02/18 06:04:17;;;;;;;2.72;1.10;;;;;;;;;;5075178;28;20178;-50
2023/02/18 06:06:43;;;;;;;2.50;0.80;;;;;;;;;;5062905;28;20645;-50
2023/02/18 06:09:09;;;;;;;0.90;0.88;;;;;;;;;;5053890;28;20875;-50
2023/02/18 06:11:35;;;;;;;5.65;1.40;;;;;;;;;;5067085;28;20232;-50
2023/02/18 06:14:01;;;;;;;5.85;1.65;;;;;;;;;;5067304;28;20186;-50
2023/02/18 06:16:28;;;;;;;3.45;1.42;;;;;;;;;;5067454;28;20195;-50
2023/02/18 06:18:54;;;;;;;1.70;1.10;;;;;;;;;;5060893;28;20187;-50
2023/02/18 06:21:20;;;;;;;3.95;1.10;;;;;;;;;;5057866;28;20221;-50
2023/02/18 06:23:46;;;;;;;3.03;1.10;;;;;;;;;;5067051;28;20458;-50
2023/02/18 06:26:12;;;;;;;3.65;1.00;;;;;;;;;;5070926;28;20201;-58
2023/02/18 06:28:38;;;;;;;20.35;10.13;;;;;;;;;;5066230;28;20218;-58
2023/02/18 06:31:04;;;;;;;24.88;13.40;;;;;;;;;;5069423;28;20178;-58
2023/02/18 06:33:30;;;;;;;23.27;12.45;;;;;;;;;;5067155;28;20546;-58
2023/02/18 06:35:58;;;;;;;23.15;11.18;;;;;;;;;;5063508;28;20186;-59
2023/02/18 06:38:24;;;;;;;19.08;9.95;;;;;;;;;;5066973;28;20561;-59
2023/02/18 06:40:50;;;;;;;22.00;9.52;;;;;;;;;;5076445;28;20182;-57
2023/02/18 06:43:16;;;;;;;24.00;9.60;;;;;;;;;;5053489;28;20175;-57
2023/02/18 06:45:42;;;;;;;24.02;8.70;;;;;;;;;;5051732;28;20195;-57
2023/02/18 06:48:07;;;;;;;18.73;7.95;;;;;;;;;;5045173;28;20476;-53
2023/02/18 06:50:33;;;;;;;16.60;7.60;;;;;;;;;;5063395;28;20190;-51
2023/02/18 06:52:59;;;;;;;17.60;7.07;;;;;;;;;;5051184;28;20175;-53
2023/02/18 06:55:25;;;;;;;13.60;6.03;;;;;;;;;;5043963;28;20187;-52
2023/02/18 06:57:51;;;;;;;14.35;6.35;;;;;;;;;;5071540;28;20265;-53
2023/02/18 07:00:17;;;;;;;14.65;5.53;;;;;;;;;;5061137;28;20229;-50
2023/02/18 07:02:43;;;;;;;18.88;6.97;;;;;;;;;;5062328;28;20620;-52
2023/02/18 07:05:09;;;;;;;10.30;6.03;;;;;;;;;;5057058;28;20261;-52
2023/02/18 07:07:35;;;;;;;14.38;5.47;;;;;;;;;;5068425;28;20226;-52
2023/02/18 07:10:01;;;;;;;11.15;5.70;;;;;;;;;;5051744;28;20202;-51
2023/02/18 07:12:27;;;;;;;13.23;5.03;;;;;;;;;;5058404;28;20198;-51
2023/02/18 07:14:53;;;;;;;12.95;4.90;;;;;;;;;;5051944;28;20194;-52
2023/02/18 07:17:19;;;;;;;8.68;4.63;;;;;;;;;;5058249;28;20174;-52
2023/02/18 07:19:45;;;;;;;13.13;4.88;;;;;;;;;;5058106;28;20560;-50
2023/02/18 07:22:11;;;;;;;9.75;5.00;;;;;;;;;;5054292;28;20190;-50
2023/02/18 07:24:37;;;;;;;13.20;4.78;;;;;;;;;;5049695;28;20188;-50
2023/02/18 07:27:03;;;;;;;9.77;4.40;;;;;;;;;;5056429;28;20199;-50
2023/02/18 07:29:28;;;;;;;10.57;4.43;;;;;;;;;;5061322;28;20213;-50
2023/02/18 07:31:54;;;;;;;8.70;4.07;;;;;;;;;;5058693;28;20183;-50
2023/02/18 07:34:20;;;;;;;8.85;3.88;;;;;;;;;;5040615;28;20195;-50
2023/02/18 07:36:46;;;;;;;13.98;4.20;;;;;;;;;;5058306;28;20195;-50
2023/02/18 07:39:12;;;;;;;9.68;4.10;;;;;;;;;;5063528;28;20244;-50
2023/02/18 07:41:38;;;;;;;8.30;4.10;;;;;;;;;;5068170;28;20229;-50
2023/02/18 07:44:04;;;;;;;9.40;3.70;;;;;;;;;;5054766;28;20198;-50
2023/02/18 07:46:30;;;;;;;9.82;3.70;;;;;;;;;;5058251;28;20198;-50
2023/02/18 07:48:56;;;;;;;5.72;3.10;;;;;;;;;;5054320;28;20207;-50
2023/02/18 07:51:22;;;;;;;5.43;2.88;;;;;;;;;;5062130;28;20178;-50
2023/02/18 07:53:48;;;;;;;7.15;3.13;;;;;;;;;;5050686;28;20248;-50
2023/02/18 07:56:14;;;;;;;7.72;2.97;;;;;;;;;;5058367;28;20554;-50
2023/02/18 07:58:40;;;;;;;6.65;3.13;;;;;;;;;;5041658;28;20213;-50
2023/02/18 08:01:08;;;;;;;5.15;2.58;;;;;;;;;;5061213;28;20557;-50
2023/02/18 08:03:34;;;;;;;7.57;3.13;;;;;;;;;;5051680;28;20551;-50
2023/02/18 08:06:00;;;;;;;5.13;2.85;;;;;;;;;;5052278;28;20202;-50
2023/02/18 08:08:28;;;;;;;5.10;2.65;;;;;;;;;;5057967;28;20206;-50
2023/02/18 08:10:55;;;;;;;4.82;2.47;;;;;;;;;;5061622;28;20301;-50
2023/02/18 08:13:21;;;;;;;6.78;2.45;;;;;;;;;;5065317;28;20182;-50
2023/02/18 08:15:47;;;;;;;6.05;2.13;;;;;;;;;;5062415;28;20217;-50
2023/02/18 08:18:18;;;;;;;5.72;2.30;;;;;;;;;;5058115;28;20182;-50
2023/02/18 08:20:46;;;;;;;4.07;2.13;;;;;;;;;;5062461;28;20201;-50
2023/02/18 08:23:12;;;;;;;4.82;1.83;;;;;;;;;;5055152;28;20213;-50
2023/02/18 08:25:38;;;;;;;4.68;2.03;;;;;;;;;;5050115;28;20186;-50
2023/02/18 08:28:04;;;;;;;4.30;2.05;;;;;;;;;;5062767;28;20719;-50
2023/02/18 08:30:30;;;;;;;4.07;1.90;;;;;;;;;;5068363;28;20181;-50
2023/02/18 08:32:56;;;;;;;4.13;1.60;;;;;;;;;;5063295;28;20179;-50
2023/02/18 08:35:22;;;;;;;3.58;2.00;;;;;;;;;;5058750;28;20182;-50
2023/02/18 08:37:48;;;;;;;2.45;1.70;;;;;;;;;;5059533;28;20203;-50
2023/02/18 08:40:14;;;;;;;2.75;1.48;;;;;;;;;;5042800;28;20302;-50
2023/02/18 08:42:40;;;;;;;2.63;1.60;;;;;;;;;;5049974;28;20858;-50
2023/02/18 08:45:06;;;;;;;2.55;1.65;;;;;;;;;;5056636;28;20205;-50
2023/02/18 08:47:33;;;;;;;4.93;1.83;;;;;;;;;;5064623;28;20607;-50
2023/02/18 08:49:58;;;;;;;4.22;1.60;;;;;;;;;;5062985;28;20214;-50
2023/02/18 08:52:24;;;;;;;6.47;1.40;;;;;;;;;;5040103;28;20217;-50
2023/02/18 08:54:50;;;;;;;5.13;1.60;;;;;;;;;;5061240;28;20187;-50
2023/02/18 08:57:16;;;;;;;4.70;1.48;;;;;;;;;;5047445;28;20659;-50
2023/02/18 08:59:42;;;;;;;2.38;1.50;;;;;;;;;;5054464;28;20206;-50
2023/02/18 09:02:10;;;;;;;4.28;1.77;;;;;;;;;;5067589;28;20188;-50
2023/02/18 09:04:36;;;;;;;3.47;1.45;;;;;;;;;;5058486;28;20186;-50
2023/02/18 09:07:02;;;;;;;5.32;1.35;;;;;;;;;;5044539;28;20205;-50
2023/02/18 09:09:28;;;;;;;6.10;1.75;;;;;;;;;;5050571;28;20264;-50
2023/02/18 09:11:54;;;;;;;1.70;1.33;;;;;;;;;;5060763;28;20504;-50
2023/02/18 09:14:20;;;;;;;2.55;1.30;;;;;;;;;;5055728;28;20220;-50
2023/02/18 09:16:46;;;;;;;3.13;1.52;;;;;;;;;;5070809;28;20861;-50
2023/02/18 09:19:12;;;;;;;4.63;1.30;;;;;;;;;;5049510;28;20179;-50
2023/02/18 09:21:38;;;;;;;2.40;1.25;;;;;;;;;;5047964;28;20625;-50
2023/02/18 09:24:04;;;;;;;2.47;1.20;;;;;;;;;;5047543;28;20242;-50
2023/02/18 09:26:30;;;;;;;2.47;1.15;;;;;;;;;;5059699;28;20220;-50
2023/02/18 09:28:56;;;;;;;1.55;1.00;;;;;;;;;;5057920;28;20225;-50
2023/02/18 09:31:24;;;;;;;3.15;1.40;;;;;;;;;;5053774;28;20182;-49
2023/02/18 09:33:51;;;;;;;2.95;1.45;;;;;;;;;;5061492;28;20254;-50
2023/02/18 09:36:19;;;;;;;4.78;1.20;;;;;;;;;;5054115;28;20186;-50
2023/02/18 09:38:45;;;;;;;2.08;1.08;;;;;;;;;;5054700;28;20182;-50
2023/02/18 09:41:34;;;;;;;2.38;1.30;;;;;;;;;;5059621;28;20201;-50
2023/02/18 09:44:23;;;;;;;4.18;1.17;;;;;;;;;;5056981;28;20571;-50
2023/02/18 09:47:00;;;;;;;1.42;1.05;;;;;;;;;;5040867;28;20223;-50
2023/02/18 09:49:28;;;;;;;2.00;1.13;;;;;;;;;;5042470;28;20209;-50
2023/02/18 09:51:54;;;;;;;2.75;1.10;;;;;;;;;;5040746;28;20210;-50
2023/02/18 09:54:21;;;;;;;2.42;1.10;;;;;;;;;;5039780;28;20188;-50
2023/02/18 09:56:47;;;;;;;3.55;1.10;;;;;;;;;;5053700;28;20198;-50
2023/02/18 09:59:22;;;;;;;2.20;1.00;;;;;;;;;;5051189;28;20201;-50
2023/02/18 10:01:50;;;;;;;3.42;0.98;;;;;;;;;;5056430;28;20177;-50
2023/02/18 10:04:35;;;;;;;2.38;0.98;;;;;;;;;;5041667;28;20426;-50
2023/02/18 10:07:02;;;;;;;4.82;1.10;;;;;;;;;;5049316;28;20211;-50
2023/02/18 10:09:34;;;;;;;1.27;1.02;;;;;;;;;;5048622;28;20207;-50
2023/02/18 10:12:07;;;;;;;1.15;0.82;;;;;;;;;;5052694;28;20440;-50
2023/02/18 10:14:34;;;;;;;1.88;0.80;;;;;;;;;;5057586;28;20255;-50
2023/02/18 10:17:00;;;;;;;1.00;0.80;;;;;;;;;;5052232;28;20172;-50
2023/02/18 10:19:42;;;;;;;1.02;0.65;;;;;;;;;;5050030;28;20194;-50
2023/02/18 10:22:10;;;;;;;1.85;0.90;;;;;;;;;;5065770;28;20183;-50
2023/02/18 10:24:38;;;;;;;1.63;1.00;;;;;;;;;;5045420;28;20188;-50
2023/02/18 10:27:06;;;;;;;1.15;0.75;;;;;;;;;;5043523;28;20188;-50
2023/02/18 10:29:32;;;;;;;0.93;0.80;;;;;;;;;;5061909;28;20330;-50
2023/02/18 10:32:16;;;;;;;1.15;1.05;;;;;;;;;;5041738;28;20274;-50
2023/02/18 10:34:42;;;;;;;1.38;0.85;;;;;;;;;;5043990;28;20172;-50
2023/02/18 10:37:29;;;;;;;1.15;0.80;;;;;;;;;;5044399;28;20250;-50
2023/02/18 10:40:04;;;;;;;1.17;0.90;;;;;;;;;;5047820;28;20191;-50
2023/02/18 10:42:45;;;;;;;1.85;0.80;;;;;;;;;;5049649;28;20236;-50
2023/02/18 10:45:23;;;;;;;1.17;0.85;;;;;;;;;;5041189;28;20498;-50
2023/02/18 10:47:58;;;;;;;1.40;0.90;;;;;;;;;;5044353;28;20279;-50
2023/02/18 10:50:33;;;;;;;0.85;0.70;;;;;;;;;;5040789;28;20194;-50
2023/02/18 10:53:01;;;;;;;1.25;0.90;;;;;;;;;;5040672;28;20235;-50
2023/02/18 10:55:38;;;;;;;1.45;0.60;;;;;;;;;;5038203;28;20176;-50
2023/02/18 10:58:04;;;;;;;1.52;1.10;;;;;;;;;;5047985;28;20210;-50
2023/02/18 11:00:34;;;;;;;0.60;0.60;;;;;;;;;;5038088;28;20534;-50
2023/02/18 11:03:03;;;;;;;0.70;0.70;;;;;;;;;;5037690;28;20543;-50
2023/02/18 11:05:29;;;;;;;1.23;0.80;;;;;;;;;;5035577;28;20263;-50
2023/02/18 11:07:58;;;;;;;1.02;0.80;;;;;;;;;;5043990;28;20336;-50
2023/02/18 11:10:25;;;;;;;1.25;0.95;;;;;;;;;;5039193;28;20175;-50
2023/02/18 11:12:56;;;;;;;0.80;0.80;;;;;;;;;;5042963;28;20179;-50
2023/02/18 11:15:23;;;;;;;1.40;0.70;;;;;;;;;;5042276;28;20211;-50
2023/02/18 11:17:50;;;;;;;1.50;0.80;;;;;;;;;;5044087;28;20276;-50
2023/02/18 11:20:31;;;;;;;0.65;0.65;;;;;;;;;;5038603;28;20187;-50
2023/02/18 11:23:17;;;;;;;1.15;0.90;;;;;;;;;;5039034;28;20182;-50
2023/02/18 11:26:04;;;;;;;2.88;0.80;;;;;;;;;;5050275;28;21244;-50
2023/02/18 11:28:32;;;;;;;0.73;0.70;;;;;;;;;;5056291;28;20644;-50
2023/02/18 11:31:00;;;;;;;0.80;0.80;;;;;;;;;;5073273;28;20192;-50
2023/02/18 11:33:31;;;;;;;1.77;0.90;;;;;;;;;;5072478;28;20435;-50
2023/02/18 11:35:58;;;;;;;0.80;0.75;;;;;;;;;;5052365;28;20198;-50
2023/02/18 11:38:44;;;;;;;1.20;0.88;;;;;;;;;;5047181;28;20190;-50
2023/02/18 11:41:11;;;;;;;1.42;0.88;;;;;;;;;;5053307;28;20270;-50
2023/02/18 11:43:41;;;;;;;2.95;1.20;;;;;;;;;;5053126;28;20183;-50
2023/02/18 11:46:08;;;;;;;1.35;0.90;;;;;;;;;;5056503;28;20183;-50
2023/02/18 11:48:34;;;;;;;0.93;0.80;;;;;;;;;;5055214;28;20203;-50
2023/02/18 11:51:01;;;;;;;1.27;0.80;;;;;;;;;;5056488;28;20171;-50
2023/02/18 11:53:30;;;;;;;0.50;0.50;;;;;;;;;;5054065;28;20183;-50
2023/02/18 11:55:57;;;;;;;0.90;0.77;;;;;;;;;;5052660;28;20190;-50
2023/02/18 11:58:23;;;;;;;0.88;0.82;;;;;;;;;;5055315;28;20453;-50
2023/02/18 12:00:53;;;;;;;0.80;0.80;;;;;;;;;;5052716;28;20850;-50
2023/02/18 12:03:37;;;;;;;1.33;0.70;;;;;;;;;;5054316;28;20194;-50
2023/02/18 12:06:11;;;;;;;1.45;0.80;;;;;;;;;;5055971;28;20205;-51
2023/02/18 12:08:44;;;;;;;1.33;0.70;;;;;;;;;;5053315;28;20238;-50
2023/02/18 12:11:13;;;;;;;1.10;0.70;;;;;;;;;;5073202;28;20535;-50
2023/02/18 12:13:47;;;;;;;3.72;0.90;;;;;;;;;;5075985;28;20182;-50
2023/02/18 12:16:15;;;;;;;11.02;1.35;;;;;;;;;;5075803;28;20183;-50
2023/02/18 12:18:47;;;;;;;6.15;1.10;;;;;;;;;;5054826;28;20208;-50
2023/02/18 12:21:31;;;;;;;8.43;1.50;;;;;;;;;;5058657;28;20561;-50
2023/02/18 12:24:13;;;;;;;4.50;1.10;;;;;;;;;;5075473;28;20281;-50
2023/02/18 12:26:48;;;;;;;6.68;1.13;;;;;;;;;;5075407;28;20553;-50
2023/02/18 12:29:20;;;;;;;6.97;1.13;;;;;;;;;;5057352;28;20210;-50
2023/02/18 12:32:05;;;;;;;4.07;0.80;;;;;;;;;;5055698;28;20214;-50
2023/02/18 12:34:37;;;;;;;6.40;0.88;;;;;;;;;;5049219;28;20179;-50
2023/02/18 12:37:05;;;;;;;7.78;1.00;;;;;;;;;;5055337;28;20441;-50
2023/02/18 12:39:55;;;;;;;2.05;0.80;;;;;;;;;;5056050;28;20191;-50
2023/02/18 12:42:24;;;;;;;10.73;1.33;;;;;;;;;;5073419;28;20546;-50
2023/02/18 12:45:07;;;;;;;5.63;0.82;;;;;;;;;;5064220;28;20193;-50
2023/02/18 12:47:47;;;;;;;4.03;0.80;;;;;;;;;;5051269;28;20183;-50
2023/02/18 12:50:33;;;;;;;7.70;1.25;;;;;;;;;;5050213;28;20634;-50
2023/02/18 12:53:17;;;;;;;1.77;0.88;;;;;;;;;;5045152;28;20191;-50
2023/02/18 12:55:52;;;;;;;7.22;1.00;;;;;;;;;;5048288;28;20182;-50
2023/02/18 12:58:22;;;;;;;1.48;0.77;;;;;;;;;;5054805;28;20179;-50
2023/02/18 13:01:00;;;;;;;2.38;0.75;;;;;;;;;;5048936;28;20175;-50
2023/02/18 13:03:32;;;;;;;8.38;0.95;;;;;;;;;;5055257;28;20565;-50
2023/02/18 13:06:17;;;;;;;4.47;0.90;;;;;;;;;;5046572;28;20207;-50
2023/02/18 13:08:53;;;;;;;6.80;1.30;;;;;;;;;;5052471;28;20202;-50
2023/02/18 13:11:38;;;;;;;7.07;0.95;;;;;;;;;;5051244;28;20209;-50
2023/02/18 13:14:10;;;;;;;1.85;0.77;;;;;;;;;;5054136;28;20187;-50
2023/02/18 13:16:37;;;;;;;10.52;0.90;;;;;;;;;;5050907;28;20209;-50
2023/02/18 13:19:18;;;;;;;4.43;1.15;;;;;;;;;;5055132;28;20551;-50
2023/02/18 13:21:45;;;;;;;5.07;0.80;;;;;;;;;;5045146;28;20191;-50
2023/02/18 13:24:13;;;;;;;3.65;0.77;;;;;;;;;;5050586;28;20179;-50
2023/02/18 13:26:40;;;;;;;4.22;0.80;;;;;;;;;;5053684;28;20191;-50
2023/02/18 13:29:14;;;;;;;3.58;0.85;;;;;;;;;;5049990;28;20215;-50
2023/02/18 13:32:00;;;;;;;4.30;0.80;;;;;;;;;;5043896;28;20195;-50
2023/02/18 13:34:35;;;;;;;1.38;0.88;;;;;;;;;;5035912;28;20736;-50
2023/02/18 13:37:16;;;;;;;2.03;0.75;;;;;;;;;;5039264;28;20191;-50
2023/02/18 13:39:48;;;;;;;3.33;1.00;;;;;;;;;;5038669;28;20191;-50
2023/02/18 13:42:17;;;;;;;2.65;0.70;;;;;;;;;;5038380;28;20191;-50
2023/02/18 13:44:55;;;;;;;1.20;0.60;;;;;;;;;;5041055;28;20226;-50
2023/02/18 13:47:40;;;;;;;3.58;0.80;;;;;;;;;;5036274;28;20238;-50
2023/02/18 13:50:16;;;;;;;2.17;0.85;;;;;;;;;;5043119;28;20752;-50
2023/02/18 13:52:43;;;;;;;0.65;0.65;;;;;;;;;;5043653;28;20214;-50
2023/02/18 13:55:18;;;;;;;3.15;0.60;;;;;;;;;;5047002;28;20171;-50
2023/02/18 13:57:46;;;;;;;1.00;0.57;;;;;;;;;;5041319;28;20185;-50
2023/02/18 14:00:20;;;;;;;1.45;0.57;;;;;;;;;;5039405;28;20191;-50
2023/02/18 14:02:57;;;;;;;3.88;0.73;;;;;;;;;;5039999;28;20556;-50
2023/02/18 14:05:24;;;;;;;1.05;0.45;;;;;;;;;;5052071;28;20452;-50
2023/02/18 14:08:06;;;;;;;1.25;0.60;;;;;;;;;;5052130;28;20191;-50
2023/02/18 14:10:33;;;;;;;1.58;0.50;;;;;;;;;;5052122;28;20171;-50
2023/02/18 14:12:59;;;;;;;1.67;0.60;;;;;;;;;;5041148;28;20214;-50
2023/02/18 14:15:25;;;;;;;2.78;0.88;;;;;;;;;;5047452;28;20214;-50
2023/02/18 14:18:09;;;;;;;2.10;0.40;;;;;;;;;;5061401;28;20446;-50
2023/02/18 14:20:38;;;;;;;0.88;0.50;;;;;;;;;;5051703;28;20200;-50
2023/02/18 14:23:12;;;;;;;1.85;0.60;;;;;;;;;;5054802;28;20290;-50
2023/02/18 14:25:40;;;;;;;1.60;0.70;;;;;;;;;;5048445;28;20179;-50
2023/02/18 14:28:32;;;;;;;1.08;0.73;;;;;;;;;;5063890;28;20565;-50
2023/02/18 14:31:00;;;;;;;1.08;0.70;;;;;;;;;;5056543;28;20179;-50
2023/02/18 14:33:30;;;;;;;1.52;0.75;;;;;;;;;;5062092;28;20204;-50
2023/02/18 14:36:00;;;;;;;1.42;0.60;;;;;;;;;;5059294;28;20244;-50
2023/02/18 14:38:26;;;;;;;1.58;0.57;;;;;;;;;;5057795;28;20218;-50
2023/02/18 14:40:58;;;;;;;1.15;0.50;;;;;;;;;;5065016;28;20503;-50
2023/02/18 14:43:43;;;;;;;0.98;0.60;;;;;;;;;;5064759;28;20265;-50
2023/02/18 14:46:15;;;;;;;2.22;0.60;;;;;;;;;;5050332;28;20233;-50
2023/02/18 14:48:45;;;;;;;1.10;0.75;;;;;;;;;;5059115;28;20210;-50
2023/02/18 14:51:15;;;;;;;1.00;0.43;;;;;;;;;;5055024;28;20211;-50
2023/02/18 14:53:43;;;;;;;2.28;0.55;;;;;;;;;;5056087;28;20198;-50